Time;durP1;ratioP1;P1;durP2;ratioP2;P2;SDS_P1;SDS_P2;PMS_P1;PMS_P2;Temp;Humidity;BMP_temperature;BMP_pressure;BME280_temperature;BME280_humidity;BME280_pressure;Samples;Min_cycle;Max_cycle;Signal;HPM_P1;HPM_P2
2022/01/26 00:07:46;;;;;;;104.22;40.08;;;;;;;;;;6281997;28;20040;-65
2022/01/26 00:10:47;;;;;;;99.35;38.28;;;;;;;;;;6278469;28;20049;-65
2022/01/26 00:13:49;;;;;;;102.43;38.60;;;;;;;;;;6280712;28;20150;-64
2022/01/26 00:16:51;;;;;;;96.00;38.75;;;;;;;;;;6269751;28;20133;-65
2022/01/26 00:19:58;;;;;;;94.53;37.97;;;;;;;;;;6275152;28;20052;-64
2022/01/26 00:23:10;;;;;;;102.22;39.25;;;;;;;;;;6283140;28;20060;-64
2022/01/26 00:26:22;;;;;;;98.65;40.40;;;;;;;;;;6275259;28;20136;-65
2022/01/26 00:29:28;;;;;;;96.82;38.47;;;;;;;;;;6277057;28;20489;-64
2022/01/26 00:39:10;;;;;;;99.43;38.88;;;;;;;;;;6273120;28;20405;-64
2022/01/26 00:42:12;;;;;;;102.90;39.13;;;;;;;;;;6276698;28;20064;-65
2022/01/26 00:45:19;;;;;;;92.18;37.92;;;;;;;;;;6273979;28;20068;-65
2022/01/26 00:48:21;;;;;;;95.28;39.80;;;;;;;;;;6275540;28;20050;-65
2022/01/26 00:51:23;;;;;;;100.68;39.05;;;;;;;;;;6276505;28;20068;-65
2022/01/26 00:54:27;;;;;;;96.97;39.22;;;;;;;;;;6274669;28;20045;-65
2022/01/26 00:57:28;;;;;;;92.15;39.67;;;;;;;;;;6277669;28;20437;-64
2022/01/26 01:00:30;;;;;;;94.50;38.80;;;;;;;;;;6275382;28;20124;-65
2022/01/26 01:03:35;;;;;;;93.75;37.28;;;;;;;;;;6281755;28;20076;-65
2022/01/26 01:06:44;;;;;;;93.10;38.20;;;;;;;;;;6277825;28;20060;-64
2022/01/26 01:09:47;;;;;;;96.82;39.63;;;;;;;;;;6279188;28;20041;-65
2022/01/26 01:12:54;;;;;;;97.32;39.67;;;;;;;;;;6280255;28;20080;-65
2022/01/26 01:15:55;;;;;;;98.20;38.45;;;;;;;;;;6280640;28;20045;-66
2022/01/26 01:18:59;;;;;;;98.78;39.90;;;;;;;;;;6276725;28;20131;-65
2022/01/26 01:22:34;;;;;;;94.90;39.10;;;;;;;;;;6278003;28;20059;-65
2022/01/26 01:29:11;;;;;;;96.80;38.05;;;;;;;;;;6260440;28;20102;-65
2022/01/26 01:32:15;;;;;;;94.97;37.67;;;;;;;;;;6285067;28;20049;-64
2022/01/26 01:35:16;;;;;;;104.35;39.58;;;;;;;;;;6278401;28;20409;-65
2022/01/26 01:38:20;;;;;;;94.40;39.67;;;;;;;;;;6275086;28;20052;-64
2022/01/26 01:41:23;;;;;;;99.33;39.83;;;;;;;;;;6276216;28;20049;-65
2022/01/26 01:44:25;;;;;;;97.95;38.17;;;;;;;;;;6274463;28;20489;-65
2022/01/26 01:47:26;;;;;;;96.97;38.55;;;;;;;;;;6275948;28;20257;-65
2022/01/26 01:50:28;;;;;;;93.38;37.47;;;;;;;;;;6276111;28;20045;-65
2022/01/26 01:53:34;;;;;;;98.72;37.97;;;;;;;;;;6281616;28;20056;-65
2022/01/26 01:56:39;;;;;;;94.93;39.67;;;;;;;;;;6282141;28;20072;-65
2022/01/26 01:59:40;;;;;;;96.90;37.42;;;;;;;;;;6283388;28;20048;-65
2022/01/26 02:02:42;;;;;;;102.47;39.97;;;;;;;;;;6282048;28;20103;-64
2022/01/26 02:05:44;;;;;;;102.13;39.17;;;;;;;;;;6283668;28;20514;-65
2022/01/26 02:08:46;;;;;;;96.88;39.22;;;;;;;;;;6284210;28;20041;-65
2022/01/26 02:11:52;;;;;;;98.35;37.53;;;;;;;;;;6283478;28;20054;-64
2022/01/26 02:15:04;;;;;;;101.57;38.97;;;;;;;;;;6281019;28;20528;-65
2022/01/26 02:18:18;;;;;;;103.53;37.67;;;;;;;;;;6280407;28;20059;-65
2022/01/26 02:51:35;;;;;;;100.65;38.10;;;;;;;;;;6283901;28;20045;-65
2022/01/26 03:01:42;;;;;;;98.10;38.43;;;;;;;;;;6275524;28;20094;-64
2022/01/26 03:04:47;;;;;;;94.00;38.45;;;;;;;;;;6282485;28;20053;-64
2022/01/26 03:07:53;;;;;;;91.32;37.67;;;;;;;;;;6286863;28;20040;-65
2022/01/26 03:11:01;;;;;;;93.18;37.45;;;;;;;;;;6281836;28;20045;-65
2022/01/26 03:14:11;;;;;;;93.13;36.53;;;;;;;;;;6278264;28;20397;-65
2022/01/26 03:17:23;;;;;;;101.90;38.50;;;;;;;;;;6277218;28;20160;-65
2022/01/26 03:20:25;;;;;;;92.53;35.83;;;;;;;;;;6281245;28;20045;-65
2022/01/26 03:30:32;;;;;;;96.88;39.88;;;;;;;;;;6203426;28;20136;-65
2022/01/26 03:33:53;;;;;;;93.80;37.58;;;;;;;;;;6283199;28;20045;-65
2022/01/26 03:36:58;;;;;;;95.30;37.70;;;;;;;;;;6277036;28;20382;-65
2022/01/26 03:39:59;;;;;;;90.88;36.17;;;;;;;;;;6283781;28;20408;-65
2022/01/26 03:43:03;;;;;;;107.85;39.75;;;;;;;;;;6280598;28;20187;-65
2022/01/26 03:46:04;;;;;;;91.00;36.55;;;;;;;;;;6279980;28;20048;-65
2022/01/26 03:49:07;;;;;;;94.18;36.95;;;;;;;;;;6280360;28;20472;-65
2022/01/26 03:52:10;;;;;;;88.78;37.95;;;;;;;;;;6279337;28;20080;-65
2022/01/26 03:55:11;;;;;;;89.43;37.97;;;;;;;;;;6277255;28;20053;-65
2022/01/26 03:58:15;;;;;;;91.65;38.35;;;;;;;;;;6277262;28;20531;-65
2022/01/26 04:01:17;;;;;;;91.63;38.53;;;;;;;;;;6278615;28;20076;-64
2022/01/26 04:04:19;;;;;;;103.35;38.67;;;;;;;;;;6274927;28;20045;-65
2022/01/26 04:07:20;;;;;;;105.72;40.63;;;;;;;;;;6271266;28;20525;-65
2022/01/26 04:10:33;;;;;;;105.45;37.88;;;;;;;;;;6274291;28;20117;-65
2022/01/26 04:13:36;;;;;;;102.60;39.58;;;;;;;;;;6281809;28;20152;-64
2022/01/26 04:16:39;;;;;;;112.30;40.92;;;;;;;;;;6272512;28;20083;-65
2022/01/26 04:19:41;;;;;;;107.38;39.92;;;;;;;;;;6276862;28;20170;-65
2022/01/26 04:22:52;;;;;;;95.85;37.17;;;;;;;;;;6279191;28;20508;-65
2022/01/26 04:25:54;;;;;;;111.35;39.45;;;;;;;;;;6276030;28;20560;-65
2022/01/26 04:29:02;;;;;;;107.18;39.83;;;;;;;;;;6272876;28;20041;-65
2022/01/26 04:32:06;;;;;;;108.82;39.85;;;;;;;;;;6278635;28;20041;-65
2022/01/26 04:35:09;;;;;;;103.03;38.85;;;;;;;;;;6273733;28;20049;-65
2022/01/26 04:38:18;;;;;;;104.13;39.63;;;;;;;;;;6279897;28;20052;-64
2022/01/26 04:41:28;;;;;;;102.13;39.78;;;;;;;;;;6277255;28;20537;-64
2022/01/26 04:44:36;;;;;;;108.90;40.15;;;;;;;;;;6276227;28;20402;-65
2022/01/26 04:47:38;;;;;;;110.22;41.13;;;;;;;;;;6281782;28;20063;-65
2022/01/26 04:50:40;;;;;;;111.55;41.03;;;;;;;;;;6276673;28;20120;-64
2022/01/26 04:53:43;;;;;;;104.40;41.03;;;;;;;;;;6287199;28;20052;-65
2022/01/26 04:56:45;;;;;;;109.43;38.67;;;;;;;;;;6275915;28;20106;-64
2022/01/26 04:59:48;;;;;;;111.53;41.50;;;;;;;;;;6281910;28;20064;-64
2022/01/26 05:02:50;;;;;;;117.45;41.85;;;;;;;;;;6275517;28;20124;-64
2022/01/26 05:05:52;;;;;;;107.20;38.53;;;;;;;;;;6278243;28;20072;-65
2022/01/26 05:08:54;;;;;;;115.25;38.95;;;;;;;;;;6271107;28;20179;-65
2022/01/26 05:11:56;;;;;;;111.00;39.00;;;;;;;;;;6273024;28;20561;-65
2022/01/26 05:14:59;;;;;;;103.47;39.28;;;;;;;;;;6274162;28;20481;-64
2022/01/26 05:18:00;;;;;;;118.25;39.00;;;;;;;;;;6276788;28;20064;-65
2022/01/26 05:21:02;;;;;;;118.20;41.53;;;;;;;;;;6277584;28;20064;-65
2022/01/26 05:24:05;;;;;;;118.97;42.35;;;;;;;;;;6274779;28;20144;-65
2022/01/26 05:27:06;;;;;;;119.03;40.25;;;;;;;;;;6273990;28;20077;-65
2022/01/26 05:30:10;;;;;;;118.05;40.83;;;;;;;;;;6273520;28;20088;-65
2022/01/26 05:33:12;;;;;;;114.05;41.47;;;;;;;;;;6278389;28;20476;-64
2022/01/26 05:36:13;;;;;;;129.95;42.08;;;;;;;;;;6285687;28;20151;-65
2022/01/26 05:39:15;;;;;;;125.88;42.50;;;;;;;;;;6283743;28;20556;-65
2022/01/26 05:42:17;;;;;;;132.95;43.90;;;;;;;;;;6289019;28;20510;-65
2022/01/26 05:45:26;;;;;;;115.43;40.85;;;;;;;;;;6281350;28;20076;-65
2022/01/26 05:48:28;;;;;;;113.00;41.10;;;;;;;;;;6280888;28;20045;-65
2022/01/26 05:51:32;;;;;;;114.03;41.67;;;;;;;;;;6282336;28;20078;-65
2022/01/26 05:54:33;;;;;;;106.53;40.87;;;;;;;;;;6287221;28;20488;-65
2022/01/26 05:57:35;;;;;;;122.50;40.90;;;;;;;;;;6288811;28;20072;-65
2022/01/26 06:00:38;;;;;;;119.72;42.95;;;;;;;;;;6285696;28;20094;-64
2022/01/26 06:03:39;;;;;;;122.47;43.10;;;;;;;;;;6282717;28;20154;-65
2022/01/26 06:06:41;;;;;;;120.40;41.80;;;;;;;;;;6282772;28;20179;-65
2022/01/26 06:09:43;;;;;;;122.00;42.58;;;;;;;;;;6280202;28;20117;-65
2022/01/26 06:12:44;;;;;;;120.85;41.58;;;;;;;;;;6277080;28;20049;-65
2022/01/26 06:15:47;;;;;;;118.32;43.00;;;;;;;;;;6282480;28;20488;-65
2022/01/26 06:18:49;;;;;;;125.25;44.97;;;;;;;;;;6282169;28;20083;-66
2022/01/26 06:21:51;;;;;;;123.45;42.28;;;;;;;;;;6284406;28;20056;-65
2022/01/26 06:24:54;;;;;;;128.82;42.35;;;;;;;;;;6286143;28;20110;-65
2022/01/26 06:27:59;;;;;;;135.05;44.35;;;;;;;;;;6285166;28;20131;-65
2022/01/26 06:31:03;;;;;;;;;;;;;;;;;;6282930;28;20074;-65
2022/01/26 06:34:05;;;;;;;119.32;42.45;;;;;;;;;;6284925;28;19928;-65
2022/01/26 06:37:07;;;;;;;139.85;44.00;;;;;;;;;;6290473;28;20335;-64
2022/01/26 06:40:08;;;;;;;141.63;45.13;;;;;;;;;;6285081;28;20411;-65
2022/01/26 06:43:13;;;;;;;133.30;45.03;;;;;;;;;;6287195;28;20056;-65
2022/01/26 06:46:22;;;;;;;139.20;46.22;;;;;;;;;;6281482;28;20077;-65
2022/01/26 06:52:43;;;;;;;136.13;45.40;;;;;;;;;;6284220;28;20041;-64
2022/01/26 06:55:44;;;;;;;139.73;46.05;;;;;;;;;;6284233;28;20056;-65
2022/01/26 06:58:46;;;;;;;143.70;45.10;;;;;;;;;;6286098;28;20186;-65
2022/01/26 07:01:49;;;;;;;138.25;44.42;;;;;;;;;;6283610;28;20053;-65
2022/01/26 07:04:51;;;;;;;139.57;46.90;;;;;;;;;;6282847;28;20041;-65
2022/01/26 07:07:52;;;;;;;144.98;45.38;;;;;;;;;;6282585;28;20088;-65
2022/01/26 07:10:54;;;;;;;136.13;45.35;;;;;;;;;;6280626;28;20055;-65
2022/01/26 07:13:58;;;;;;;140.35;44.97;;;;;;;;;;6278874;28;20123;-65
2022/01/26 07:21:06;;;;;;;135.93;45.00;;;;;;;;;;6276731;28;20045;-64
2022/01/26 07:23:56;;;;;;;133.75;44.22;;;;;;;;;;6279204;28;20528;-65
2022/01/26 07:26:57;;;;;;;137.00;45.00;;;;;;;;;;6279132;28;20072;-65
2022/01/26 07:29:59;;;;;;;142.52;46.03;;;;;;;;;;6280081;28;20114;-67
2022/01/26 07:33:02;;;;;;;136.43;44.67;;;;;;;;;;6283848;28;20432;-65
2022/01/26 07:36:04;;;;;;;144.10;43.92;;;;;;;;;;6285084;28;20508;-64
2022/01/26 07:39:09;;;;;;;136.85;44.67;;;;;;;;;;6279782;28;20463;-65
2022/01/26 07:42:12;;;;;;;137.48;45.50;;;;;;;;;;6284856;28;20095;-64
2022/01/26 07:45:14;;;;;;;123.72;43.47;;;;;;;;;;6277008;28;20076;-65
2022/01/26 07:48:17;;;;;;;136.82;44.85;;;;;;;;;;6280842;28;20097;-64
2022/01/26 07:51:18;;;;;;;140.23;44.33;;;;;;;;;;6283416;28;20179;-65
2022/01/26 07:54:21;;;;;;;141.65;45.47;;;;;;;;;;6279751;28;22534;-65
2022/01/26 07:57:25;;;;;;;137.05;43.35;;;;;;;;;;6282298;28;20149;-65
2022/01/26 08:00:27;;;;;;;148.57;46.50;;;;;;;;;;6286928;28;20128;-64
2022/01/26 08:03:33;;;;;;;148.55;46.42;;;;;;;;;;6284576;28;20178;-65
2022/01/26 08:06:35;;;;;;;145.23;45.95;;;;;;;;;;6279539;28;20048;-64
2022/01/26 08:09:42;;;;;;;141.18;45.97;;;;;;;;;;6277360;28;20130;-64
2022/01/26 08:12:43;;;;;;;145.50;46.85;;;;;;;;;;6274873;28;20404;-65
2022/01/26 08:15:45;;;;;;;140.77;47.03;;;;;;;;;;6281390;28;20476;-64
2022/01/26 08:18:48;;;;;;;135.02;45.63;;;;;;;;;;6274055;28;20559;-65
2022/01/26 08:21:49;;;;;;;136.32;44.80;;;;;;;;;;6282352;28;20162;-65
2022/01/26 08:24:51;;;;;;;150.98;47.25;;;;;;;;;;6274969;28;20053;-65
2022/01/26 08:27:58;;;;;;;129.15;44.40;;;;;;;;;;6280922;28;20103;-64
2022/01/26 08:31:00;;;;;;;143.50;45.45;;;;;;;;;;6278747;28;20047;-64
2022/01/26 08:34:03;;;;;;;138.30;45.08;;;;;;;;;;6274577;28;20367;-65
2022/01/26 08:37:05;;;;;;;130.50;43.47;;;;;;;;;;6275777;28;20478;-65
2022/01/26 08:40:07;;;;;;;120.70;41.22;;;;;;;;;;6272668;28;20128;-64
2022/01/26 08:43:09;;;;;;;121.40;43.60;;;;;;;;;;6274779;28;20136;-64
2022/01/26 08:46:10;;;;;;;124.20;42.70;;;;;;;;;;6275653;28;20142;-64
2022/01/26 08:49:13;;;;;;;124.55;42.83;;;;;;;;;;6273319;28;20182;-65
2022/01/26 08:52:15;;;;;;;127.93;44.83;;;;;;;;;;6276563;28;20136;-64
2022/01/26 08:55:17;;;;;;;121.32;43.38;;;;;;;;;;6274316;28;20135;-65
2022/01/26 08:58:18;;;;;;;124.35;41.03;;;;;;;;;;6278147;28;20063;-65
2022/01/26 09:01:20;;;;;;;115.10;40.83;;;;;;;;;;6280278;28;20119;-65
2022/01/26 09:04:23;;;;;;;124.80;41.70;;;;;;;;;;6277201;28;20082;-65
2022/01/26 09:07:24;;;;;;;112.80;41.92;;;;;;;;;;6273265;28;20045;-64
2022/01/26 09:10:28;;;;;;;119.57;43.38;;;;;;;;;;6278359;28;20065;-65
2022/01/26 09:13:32;;;;;;;123.32;41.38;;;;;;;;;;6275107;28;20041;-66
2022/01/26 09:16:35;;;;;;;;;;;;;;;;;;6280851;28;20047;-65
2022/01/26 09:19:39;;;;;;;121.03;41.13;;;;;;;;;;6281129;28;20277;-64
2022/01/26 09:22:40;;;;;;;125.45;42.55;;;;;;;;;;6273974;28;20071;-64
2022/01/26 09:25:42;;;;;;;128.85;43.15;;;;;;;;;;6278976;28;20408;-65
2022/01/26 09:28:43;;;;;;;119.13;41.97;;;;;;;;;;6279056;28;20124;-64
2022/01/26 09:31:47;;;;;;;128.90;44.28;;;;;;;;;;6286230;28;20135;-64
2022/01/26 09:34:50;;;;;;;123.57;43.63;;;;;;;;;;6280952;28;20075;-65
2022/01/26 09:37:52;;;;;;;114.30;40.70;;;;;;;;;;6279040;28;20496;-65
2022/01/26 09:40:53;;;;;;;127.07;44.75;;;;;;;;;;6280232;28;20521;-65
2022/01/26 09:43:55;;;;;;;129.27;46.67;;;;;;;;;;6275019;28;20084;-65
2022/01/26 09:46:56;;;;;;;132.15;45.53;;;;;;;;;;6281457;28;20052;-65
2022/01/26 09:50:02;;;;;;;130.20;46.08;;;;;;;;;;6280089;28;20129;-64
2022/01/26 09:53:04;;;;;;;124.97;44.83;;;;;;;;;;6287038;28;20064;-65
2022/01/26 09:56:06;;;;;;;123.70;45.63;;;;;;;;;;6284017;28;20048;-65
2022/01/26 09:59:08;;;;;;;141.10;43.97;;;;;;;;;;6289576;28;20110;-65
2022/01/26 10:02:21;;;;;;;137.45;47.78;;;;;;;;;;6287096;28;20114;-65
2022/01/26 10:05:24;;;;;;;138.70;45.28;;;;;;;;;;6275518;28;20048;-65
2022/01/26 10:08:54;;;;;;;137.68;42.58;;;;;;;;;;6272081;28;20110;-65
2022/01/26 10:15:31;;;;;;;127.85;41.53;;;;;;;;;;6277432;28;20124;-65
2022/01/26 10:18:34;;;;;;;119.57;43.03;;;;;;;;;;6273359;28;20072;-64
2022/01/26 10:21:46;;;;;;;127.47;44.15;;;;;;;;;;6276371;28;20141;-64
2022/01/26 10:24:48;;;;;;;119.50;42.20;;;;;;;;;;6282018;28;20095;-64
2022/01/26 10:27:50;;;;;;;122.05;41.55;;;;;;;;;;6291607;28;20186;-65
2022/01/26 10:30:52;;;;;;;129.98;42.88;;;;;;;;;;6284565;28;20508;-64
2022/01/26 10:33:58;;;;;;;122.20;44.17;;;;;;;;;;6289942;28;20043;-65
2022/01/26 10:37:03;;;;;;;113.28;41.25;;;;;;;;;;6292825;28;20070;-64
2022/01/26 10:40:12;;;;;;;113.80;42.10;;;;;;;;;;6292740;28;20051;-65
2022/01/26 10:43:14;;;;;;;118.95;41.13;;;;;;;;;;6283126;28;20480;-65
2022/01/26 10:46:26;;;;;;;120.82;41.95;;;;;;;;;;6286845;28;20061;-65
2022/01/26 10:49:44;;;;;;;111.78;39.55;;;;;;;;;;6293336;28;20843;-65
2022/01/26 10:52:54;;;;;;;107.45;38.88;;;;;;;;;;6292488;28;20052;-66
2022/01/26 10:55:56;;;;;;;115.97;40.00;;;;;;;;;;6293386;28;20480;-65
2022/01/26 10:58:58;;;;;;;106.97;38.47;;;;;;;;;;6291207;28;20075;-65
2022/01/26 11:02:02;;;;;;;107.07;39.78;;;;;;;;;;6290918;28;20135;-65
2022/01/26 11:05:04;;;;;;;119.88;41.50;;;;;;;;;;6287250;28;20041;-65
2022/01/26 11:08:10;;;;;;;106.20;38.15;;;;;;;;;;6280032;28;20103;-65
2022/01/26 11:11:19;;;;;;;110.90;38.97;;;;;;;;;;6281486;28;20065;-65
2022/01/26 11:14:22;;;;;;;103.97;39.00;;;;;;;;;;6275896;28;20091;-65
2022/01/26 11:17:27;;;;;;;101.57;35.85;;;;;;;;;;6283441;28;20796;-65
2022/01/26 11:20:31;;;;;;;100.90;37.10;;;;;;;;;;6280103;28;20055;-65
2022/01/26 11:23:35;;;;;;;;;;;;;;;;;;6283574;28;20123;-64
2022/01/26 11:26:41;;;;;;;103.80;38.40;;;;;;;;;;6285568;28;20395;-65
2022/01/26 11:29:47;;;;;;;106.43;36.30;;;;;;;;;;6283532;28;20055;-65
2022/01/26 11:32:54;;;;;;;104.95;38.13;;;;;;;;;;6284156;28;20182;-65
2022/01/26 11:35:58;;;;;;;100.18;37.47;;;;;;;;;;6285425;28;20059;-65
2022/01/26 11:45:40;;;;;;;100.55;37.90;;;;;;;;;;6252615;28;20400;-65
2022/01/26 11:48:41;;;;;;;95.13;35.58;;;;;;;;;;6280946;28;20052;-65
2022/01/26 11:51:44;;;;;;;87.20;34.60;;;;;;;;;;6283377;28;20131;-65
2022/01/26 11:54:52;;;;;;;88.18;33.38;;;;;;;;;;6285253;28;20508;-65
2022/01/26 11:57:55;;;;;;;93.55;35.17;;;;;;;;;;6280789;28;20040;-65
2022/01/26 12:01:12;;;;;;;97.23;34.33;;;;;;;;;;6283195;28;20109;-65
2022/01/26 12:04:16;;;;;;;90.72;32.90;;;;;;;;;;6280827;28;20053;-65
2022/01/26 12:07:22;;;;;;;91.25;34.90;;;;;;;;;;6280355;28;20071;-65
2022/01/26 12:10:28;;;;;;;100.00;35.53;;;;;;;;;;6285745;28;20120;-65
2022/01/26 12:13:31;;;;;;;91.50;34.22;;;;;;;;;;6282192;28;20053;-65
2022/01/26 12:16:35;;;;;;;89.10;32.47;;;;;;;;;;6280595;28;20135;-65
2022/01/26 12:19:49;;;;;;;84.95;32.97;;;;;;;;;;6273374;28;20438;-65
2022/01/26 12:36:31;;;;;;;87.38;32.25;;;;;;;;;;6274102;28;20060;-65
2022/01/26 12:43:01;;;;;;;84.65;34.17;;;;;;;;;;6270863;28;20045;-65
2022/01/26 12:46:04;;;;;;;80.28;33.03;;;;;;;;;;6276947;28;20045;-65
2022/01/26 12:49:07;;;;;;;118.82;35.83;;;;;;;;;;6277442;28;20044;-65
2022/01/26 12:52:11;;;;;;;90.13;34.70;;;;;;;;;;6279990;28;20404;-65
2022/01/26 12:55:19;;;;;;;;;;;;;;;;;;6283297;28;20130;-65
2022/01/26 12:58:26;;;;;;;133.25;36.85;;;;;;;;;;6281196;28;20009;-65
2022/01/26 13:01:27;;;;;;;96.72;37.15;;;;;;;;;;6275948;28;20146;-65
2022/01/26 13:04:29;;;;;;;80.63;33.20;;;;;;;;;;6270974;28;20061;-65
2022/01/26 13:07:31;;;;;;;92.97;35.35;;;;;;;;;;6274127;28;20124;-65
2022/01/26 13:10:33;;;;;;;89.38;33.70;;;;;;;;;;6272440;28;20122;-65
2022/01/26 13:13:36;;;;;;;81.72;32.15;;;;;;;;;;6275115;28;20542;-65
2022/01/26 13:16:40;;;;;;;79.13;32.88;;;;;;;;;;6271305;28;20052;-65
2022/01/26 13:19:56;;;;;;;78.70;33.72;;;;;;;;;;6270890;28;20401;-65
2022/01/26 13:23:13;;;;;;;154.20;65.93;;;;;;;;;;6273032;28;20068;-64
2022/01/26 13:26:23;;;;;;;77.63;34.60;;;;;;;;;;6273908;28;20401;-64
2022/01/26 13:29:38;;;;;;;94.75;40.67;;;;;;;;;;6281780;28;20051;-64
2022/01/26 13:33:07;;;;;;;84.45;33.08;;;;;;;;;;6278993;28;20409;-64
2022/01/26 13:36:25;;;;;;;82.28;33.05;;;;;;;;;;6278955;28;20048;-64
2022/01/26 13:39:45;;;;;;;74.10;30.92;;;;;;;;;;6282692;28;20044;-64
2022/01/26 13:46:42;;;;;;;90.50;33.45;;;;;;;;;;6264906;28;20068;-65
2022/01/26 13:49:49;;;;;;;77.15;30.83;;;;;;;;;;6276464;28;20064;-65
2022/01/26 13:52:55;;;;;;;69.05;30.02;;;;;;;;;;6277747;28;20052;-65
2022/01/26 13:56:04;;;;;;;80.18;30.98;;;;;;;;;;6281493;28;20125;-65
2022/01/26 13:59:14;;;;;;;76.05;30.27;;;;;;;;;;6290063;28;20068;-67
2022/01/26 14:02:17;;;;;;;79.40;32.85;;;;;;;;;;6292746;28;20174;-65
2022/01/26 14:05:18;;;;;;;79.35;34.33;;;;;;;;;;6281603;28;20044;-65
2022/01/26 14:08:20;;;;;;;91.15;37.72;;;;;;;;;;6282241;28;20139;-64
2022/01/26 14:11:22;;;;;;;96.75;37.60;;;;;;;;;;6281118;28;20572;-65
2022/01/26 14:14:29;;;;;;;85.65;34.03;;;;;;;;;;6281824;28;20145;-65
2022/01/26 14:17:40;;;;;;;81.57;34.97;;;;;;;;;;6280391;28;20041;-64
2022/01/26 14:20:53;;;;;;;81.45;34.40;;;;;;;;;;6281770;28;20245;-64
2022/01/26 14:27:25;;;;;;;78.43;33.55;;;;;;;;;;6287890;28;20056;-63
2022/01/26 14:30:37;;;;;;;79.68;33.42;;;;;;;;;;6282931;28;20424;-65
2022/01/26 14:33:55;;;;;;;81.80;34.63;;;;;;;;;;6289008;28;20144;-64
2022/01/26 15:00:47;;;;;;;86.60;34.70;;;;;;;;;;6254970;28;20047;-64
2022/01/26 15:41:09;;;;;;;76.45;31.92;;;;;;;;;;6291084;28;20328;-64
2022/01/26 15:44:23;;;;;;;81.50;32.65;;;;;;;;;;6288740;28;20146;-64
2022/01/26 15:50:48;;;;;;;83.95;32.88;;;;;;;;;;6289804;28;20041;-64
2022/01/26 15:57:54;;;;;;;87.03;32.72;;;;;;;;;;6187684;28;20080;-65
2022/01/26 16:04:41;;;;;;;89.82;34.22;;;;;;;;;;6288063;28;20052;-64
2022/01/26 16:07:47;;;;;;;90.40;31.80;;;;;;;;;;6289700;28;20052;-64
2022/01/26 16:21:16;;;;;;;83.18;32.47;;;;;;;;;;6225513;28;20353;-64
2022/01/26 16:37:44;;;;;;;95.93;33.80;;;;;;;;;;6285345;28;20044;-65
2022/01/26 17:43:16;;;;;;;83.25;31.40;;;;;;;;;;6213367;28;20605;-64
2022/01/26 18:05:39;;;;;;;87.80;32.80;;;;;;;;;;6281769;28;20049;-64
2022/01/26 18:15:23;;;;;;;89.28;33.40;;;;;;;;;;6286691;28;20698;-64
2022/01/26 18:32:09;;;;;;;90.35;32.13;;;;;;;;;;6285230;28;20049;-64
2022/01/26 18:39:01;;;;;;;84.68;33.58;;;;;;;;;;6275936;28;20041;-65
2022/01/26 18:52:03;;;;;;;87.40;33.35;;;;;;;;;;6282947;28;20048;-64
2022/01/26 18:55:07;;;;;;;92.45;31.92;;;;;;;;;;6288924;28;20378;-65
2022/01/26 18:58:09;;;;;;;92.68;32.90;;;;;;;;;;6277506;28;20083;-63
2022/01/26 19:01:12;;;;;;;90.13;33.97;;;;;;;;;;6286706;28;20273;-64
2022/01/26 19:04:15;;;;;;;85.53;33.17;;;;;;;;;;6287359;28;20413;-64
2022/01/26 19:07:16;;;;;;;93.90;34.42;;;;;;;;;;6284583;28;20135;-65
2022/01/26 19:10:18;;;;;;;94.43;33.47;;;;;;;;;;6281121;28;20182;-65
2022/01/26 19:13:25;;;;;;;91.07;32.65;;;;;;;;;;6279838;28;20508;-65
2022/01/26 19:16:34;;;;;;;91.65;34.25;;;;;;;;;;6285791;28;20492;-65
2022/01/26 19:19:42;;;;;;;100.93;33.80;;;;;;;;;;6279676;28;20052;-65
2022/01/26 19:22:59;;;;;;;95.75;34.50;;;;;;;;;;6287250;28;20059;-66
2022/01/26 19:26:05;;;;;;;98.35;34.22;;;;;;;;;;6286503;28;20041;-65
2022/01/26 19:29:15;;;;;;;90.50;32.95;;;;;;;;;;6285202;28;20126;-65
2022/01/26 19:46:16;;;;;;;87.03;33.03;;;;;;;;;;6228551;28;20053;-64
2022/01/26 19:52:38;;;;;;;79.65;31.63;;;;;;;;;;6256632;28;20496;-66
2022/01/26 19:55:39;;;;;;;86.22;31.60;;;;;;;;;;6257187;28;20104;-64
2022/01/26 19:58:41;;;;;;;83.18;30.60;;;;;;;;;;6253655;28;20131;-64
2022/01/26 20:01:43;;;;;;;86.82;31.98;;;;;;;;;;6268256;28;20373;-64
2022/01/26 20:04:46;;;;;;;91.88;32.88;;;;;;;;;;6280049;28;20179;-64
2022/01/26 20:07:56;;;;;;;87.88;32.78;;;;;;;;;;6279943;28;20128;-64
2022/01/26 20:11:02;;;;;;;85.78;31.23;;;;;;;;;;6277291;28;20049;-65
2022/01/26 20:14:05;;;;;;;86.18;32.25;;;;;;;;;;6281106;28;20425;-64
2022/01/26 20:17:08;;;;;;;92.55;32.38;;;;;;;;;;6281256;28;20049;-64
2022/01/26 20:20:12;;;;;;;90.32;33.20;;;;;;;;;;6279621;28;20095;-65
2022/01/26 20:23:15;;;;;;;;;;;;;;;;;;6275453;28;20196;-64
2022/01/26 20:26:17;;;;;;;96.25;33.05;;;;;;;;;;6275908;28;19971;-64
2022/01/26 20:29:21;;;;;;;88.13;32.78;;;;;;;;;;6284153;28;20087;-65
2022/01/26 20:32:23;;;;;;;95.93;34.75;;;;;;;;;;6277750;28;20049;-64
2022/01/26 20:35:25;;;;;;;92.13;34.33;;;;;;;;;;6277116;28;20531;-65
2022/01/26 20:38:28;;;;;;;94.05;34.25;;;;;;;;;;6273081;28;20073;-64
2022/01/26 20:41:30;;;;;;;87.75;33.78;;;;;;;;;;6275634;28;20083;-64
2022/01/26 20:44:31;;;;;;;86.80;33.17;;;;;;;;;;6274235;28;20183;-64
2022/01/26 20:47:34;;;;;;;90.93;31.88;;;;;;;;;;6260097;28;20060;-65
2022/01/26 20:50:36;;;;;;;87.88;32.65;;;;;;;;;;6258171;28;20053;-64
2022/01/26 20:53:41;;;;;;;80.47;32.42;;;;;;;;;;6254294;28;20140;-64
2022/01/26 20:56:43;;;;;;;94.65;31.48;;;;;;;;;;6255074;28;20111;-64
2022/01/26 20:59:44;;;;;;;84.07;32.42;;;;;;;;;;6254012;28;20472;-64
2022/01/26 21:02:49;;;;;;;90.40;34.83;;;;;;;;;;6255023;28;20112;-64
2022/01/26 21:05:51;;;;;;;97.22;34.38;;;;;;;;;;6255140;28;20320;-64
2022/01/26 21:08:54;;;;;;;95.70;33.80;;;;;;;;;;6258433;28;20041;-64
2022/01/26 21:11:56;;;;;;;91.55;33.50;;;;;;;;;;6256316;28;20417;-64
2022/01/26 21:14:57;;;;;;;97.25;35.70;;;;;;;;;;6260649;28;20533;-64
2022/01/26 21:17:59;;;;;;;95.05;33.90;;;;;;;;;;6263867;28;20045;-64
2022/01/26 21:21:01;;;;;;;96.97;35.22;;;;;;;;;;6256029;28;20567;-64
2022/01/26 21:24:05;;;;;;;93.40;34.45;;;;;;;;;;6254639;28;20128;-65
2022/01/26 21:27:06;;;;;;;97.55;33.42;;;;;;;;;;6282913;28;20036;-64
2022/01/26 21:30:10;;;;;;;113.75;36.22;;;;;;;;;;6279384;28;20138;-64
2022/01/26 21:33:13;;;;;;;112.35;36.20;;;;;;;;;;6283393;28;20103;-64
2022/01/26 21:36:15;;;;;;;101.38;35.13;;;;;;;;;;6284058;28;20072;-64
2022/01/26 21:39:18;;;;;;;102.35;36.42;;;;;;;;;;6289907;28;20048;-64
2022/01/26 21:42:20;;;;;;;99.50;33.50;;;;;;;;;;6281424;28;20175;-64
2022/01/26 21:45:23;;;;;;;104.45;33.92;;;;;;;;;;6281723;28;20053;-64
2022/01/26 21:48:25;;;;;;;104.70;37.38;;;;;;;;;;6282076;28;20969;-64
2022/01/26 21:51:26;;;;;;;96.65;33.40;;;;;;;;;;6284155;28;20048;-65
2022/01/26 21:54:29;;;;;;;101.72;34.10;;;;;;;;;;6283287;28;20048;-64
2022/01/26 21:57:31;;;;;;;109.90;35.75;;;;;;;;;;6277378;28;20175;-64
2022/01/26 22:00:33;;;;;;;115.93;38.03;;;;;;;;;;6279611;28;20572;-64
2022/01/26 22:03:34;;;;;;;115.90;35.83;;;;;;;;;;6275627;28;20166;-64
2022/01/26 22:06:36;;;;;;;110.97;37.95;;;;;;;;;;6272823;28;20079;-64
2022/01/26 22:09:39;;;;;;;117.53;36.85;;;;;;;;;;6274621;28;20107;-65
2022/01/26 22:12:42;;;;;;;113.80;35.75;;;;;;;;;;6279599;28;20044;-64
2022/01/26 22:15:44;;;;;;;119.22;36.45;;;;;;;;;;6274808;28;20080;-64
2022/01/26 22:18:45;;;;;;;111.65;35.47;;;;;;;;;;6278010;28;20516;-64
2022/01/26 22:21:47;;;;;;;102.45;35.80;;;;;;;;;;6273782;28;20123;-64
2022/01/26 22:24:50;;;;;;;113.30;35.05;;;;;;;;;;6272350;28;20044;-64
2022/01/26 22:27:53;;;;;;;115.95;36.85;;;;;;;;;;6285306;28;20398;-64
2022/01/26 22:30:56;;;;;;;122.03;37.97;;;;;;;;;;6287017;28;20052;-64
2022/01/26 22:33:58;;;;;;;108.38;36.40;;;;;;;;;;6279107;28;20080;-64
2022/01/26 22:37:00;;;;;;;123.13;36.78;;;;;;;;;;6279743;28;20052;-64
2022/01/26 22:40:04;;;;;;;115.55;34.10;;;;;;;;;;6276437;28;20104;-64
2022/01/26 22:43:07;;;;;;;115.30;36.55;;;;;;;;;;6277121;28;20131;-64
2022/01/26 22:46:08;;;;;;;112.00;35.90;;;;;;;;;;6279435;28;20057;-64
2022/01/26 22:49:10;;;;;;;114.18;33.22;;;;;;;;;;6280667;28;20510;-64
2022/01/26 22:52:11;;;;;;;112.18;34.53;;;;;;;;;;6274252;28;20165;-64
2022/01/26 22:55:15;;;;;;;106.13;34.97;;;;;;;;;;6278700;28;20131;-64
2022/01/26 22:58:17;;;;;;;114.28;34.42;;;;;;;;;;6280389;28;20047;-65
2022/01/26 23:04:46;;;;;;;107.47;35.40;;;;;;;;;;6258951;28;20147;-64
2022/01/26 23:07:48;;;;;;;110.72;33.63;;;;;;;;;;6285743;28;20048;-64
2022/01/26 23:10:51;;;;;;;96.78;31.77;;;;;;;;;;6277597;28;20037;-65
2022/01/26 23:13:53;;;;;;;106.88;32.58;;;;;;;;;;6273266;28;20096;-64
2022/01/26 23:16:54;;;;;;;107.72;34.13;;;;;;;;;;6291193;28;20567;-64
2022/01/26 23:19:56;;;;;;;109.47;34.50;;;;;;;;;;6279350;28;20101;-64